sensor_id;sensor_type;location;lat;lon;timestamp;P1;durP1;ratioP1;P2;durP2;ratioP2
51758;SDS011;66684;47.568;18.734;2023-03-14T00:01:48;11.93;;;6.43;;
51758;SDS011;66684;47.568;18.734;2023-03-14T00:04:14;11.98;;;6.75;;
51758;SDS011;66684;47.568;18.734;2023-03-14T00:06:40;12.85;;;6.93;;
51758;SDS011;66684;47.568;18.734;2023-03-14T00:09:06;11.38;;;7.18;;
51758;SDS011;66684;47.568;18.734;2023-03-14T00:11:32;13.35;;;7.47;;
51758;SDS011;66684;47.568;18.734;2023-03-14T00:13:58;13.32;;;7.18;;
51758;SDS011;66684;47.568;18.734;2023-03-14T00:16:25;13.95;;;7.37;;
51758;SDS011;66684;47.568;18.734;2023-03-14T00:18:51;12.98;;;7.55;;
51758;SDS011;66684;47.568;18.734;2023-03-14T00:21:17;14.32;;;7.43;;
51758;SDS011;66684;47.568;18.734;2023-03-14T00:23:44;12.57;;;7.55;;
51758;SDS011;66684;47.568;18.734;2023-03-14T00:26:11;12.75;;;6.78;;
51758;SDS011;66684;47.568;18.734;2023-03-14T00:28:39;11.07;;;7.00;;
51758;SDS011;66684;47.568;18.734;2023-03-14T00:31:06;12.75;;;6.60;;
51758;SDS011;66684;47.568;18.734;2023-03-14T00:33:33;13.88;;;7.47;;
51758;SDS011;66684;47.568;18.734;2023-03-14T00:36:01;13.85;;;7.93;;
51758;SDS011;66684;47.568;18.734;2023-03-14T00:38:35;14.93;;;7.50;;
51758;SDS011;66684;47.568;18.734;2023-03-14T00:41:09;13.30;;;7.78;;
51758;SDS011;66684;47.568;18.734;2023-03-14T00:43:36;14.65;;;7.28;;
51758;SDS011;66684;47.568;18.734;2023-03-14T00:46:03;12.02;;;7.18;;
51758;SDS011;66684;47.568;18.734;2023-03-14T00:48:29;12.57;;;7.25;;
51758;SDS011;66684;47.568;18.734;2023-03-14T00:50:55;13.10;;;7.32;;
51758;SDS011;66684;47.568;18.734;2023-03-14T00:53:21;15.35;;;6.85;;
51758;SDS011;66684;47.568;18.734;2023-03-14T00:55:47;12.70;;;7.18;;
51758;SDS011;66684;47.568;18.734;2023-03-14T00:58:15;16.55;;;7.20;;
51758;SDS011;66684;47.568;18.734;2023-03-14T01:00:41;14.50;;;6.82;;
51758;SDS011;66684;47.568;18.734;2023-03-14T01:03:08;10.80;;;6.95;;
51758;SDS011;66684;47.568;18.734;2023-03-14T01:05:36;10.98;;;6.62;;
51758;SDS011;66684;47.568;18.734;2023-03-14T01:08:03;11.55;;;7.07;;
51758;SDS011;66684;47.568;18.734;2023-03-14T01:10:30;11.75;;;6.45;;
51758;SDS011;66684;47.568;18.734;2023-03-14T01:12:56;13.10;;;7.25;;
51758;SDS011;66684;47.568;18.734;2023-03-14T01:15:22;11.80;;;6.75;;
51758;SDS011;66684;47.568;18.734;2023-03-14T01:17:48;16.02;;;6.93;;
51758;SDS011;66684;47.568;18.734;2023-03-14T01:20:14;17.60;;;7.55;;
51758;SDS011;66684;47.568;18.734;2023-03-14T01:22:42;15.35;;;7.25;;
51758;SDS011;66684;47.568;18.734;2023-03-14T01:25:09;12.07;;;7.20;;
51758;SDS011;66684;47.568;18.734;2023-03-14T01:27:37;12.63;;;7.07;;
51758;SDS011;66684;47.568;18.734;2023-03-14T01:30:03;13.32;;;7.28;;
51758;SDS011;66684;47.568;18.734;2023-03-14T01:32:30;13.10;;;7.43;;
51758;SDS011;66684;47.568;18.734;2023-03-14T01:34:56;13.43;;;8.32;;
51758;SDS011;66684;47.568;18.734;2023-03-14T01:37:22;10.88;;;6.68;;
51758;SDS011;66684;47.568;18.734;2023-03-14T01:39:48;13.10;;;6.72;;
51758;SDS011;66684;47.568;18.734;2023-03-14T01:42:14;13.15;;;7.07;;
51758;SDS011;66684;47.568;18.734;2023-03-14T01:47:20;14.40;;;7.43;;
51758;SDS011;66684;47.568;18.734;2023-03-14T01:49:48;13.43;;;7.40;;
51758;SDS011;66684;47.568;18.734;2023-03-14T01:52:41;14.25;;;7.70;;
51758;SDS011;66684;47.568;18.734;2023-03-14T01:55:15;15.02;;;8.00;;
51758;SDS011;66684;47.568;18.734;2023-03-14T01:57:52;16.60;;;8.98;;
51758;SDS011;66684;47.568;18.734;2023-03-14T02:00:22;14.23;;;9.23;;
51758;SDS011;66684;47.568;18.734;2023-03-14T02:02:50;16.62;;;9.77;;
51758;SDS011;66684;47.568;18.734;2023-03-14T02:05:19;16.40;;;9.07;;
51758;SDS011;66684;47.568;18.734;2023-03-14T02:07:53;13.30;;;8.43;;
51758;SDS011;66684;47.568;18.734;2023-03-14T02:10:34;15.27;;;8.23;;
51758;SDS011;66684;47.568;18.734;2023-03-14T02:13:04;15.23;;;8.02;;
51758;SDS011;66684;47.568;18.734;2023-03-14T02:15:31;12.70;;;7.30;;
51758;SDS011;66684;47.568;18.734;2023-03-14T02:17:58;13.50;;;7.45;;
51758;SDS011;66684;47.568;18.734;2023-03-14T02:26:37;12.82;;;7.40;;
51758;SDS011;66684;47.568;18.734;2023-03-14T02:29:07;12.18;;;7.55;;
51758;SDS011;66684;47.568;18.734;2023-03-14T02:31:33;13.40;;;7.47;;
51758;SDS011;66684;47.568;18.734;2023-03-14T02:33:59;14.82;;;7.57;;
51758;SDS011;66684;47.568;18.734;2023-03-14T02:36:26;10.80;;;6.87;;
51758;SDS011;66684;47.568;18.734;2023-03-14T02:39:14;15.43;;;7.40;;
51758;SDS011;66684;47.568;18.734;2023-03-14T02:41:46;13.02;;;7.80;;
51758;SDS011;66684;47.568;18.734;2023-03-14T02:44:14;14.77;;;8.05;;
51758;SDS011;66684;47.568;18.734;2023-03-14T02:46:40;18.17;;;8.02;;
51758;SDS011;66684;47.568;18.734;2023-03-14T02:49:08;12.57;;;7.80;;
51758;SDS011;66684;47.568;18.734;2023-03-14T02:51:37;16.60;;;8.43;;
51758;SDS011;66684;47.568;18.734;2023-03-14T02:54:05;14.45;;;8.18;;
51758;SDS011;66684;47.568;18.734;2023-03-14T02:56:31;12.88;;;7.80;;
51758;SDS011;66684;47.568;18.734;2023-03-14T02:58:57;16.42;;;8.60;;
51758;SDS011;66684;47.568;18.734;2023-03-14T03:01:23;12.40;;;8.25;;
51758;SDS011;66684;47.568;18.734;2023-03-14T03:03:49;17.10;;;8.88;;
51758;SDS011;66684;47.568;18.734;2023-03-14T03:06:15;15.50;;;8.50;;
51758;SDS011;66684;47.568;18.734;2023-03-14T03:08:41;13.73;;;8.77;;
51758;SDS011;66684;47.568;18.734;2023-03-14T03:11:07;14.60;;;8.05;;
51758;SDS011;66684;47.568;18.734;2023-03-14T03:13:34;14.70;;;8.23;;
51758;SDS011;66684;47.568;18.734;2023-03-14T03:16:00;14.55;;;7.90;;
51758;SDS011;66684;47.568;18.734;2023-03-14T03:18:26;14.45;;;8.23;;
51758;SDS011;66684;47.568;18.734;2023-03-14T03:20:52;14.98;;;8.23;;
51758;SDS011;66684;47.568;18.734;2023-03-14T03:23:18;11.25;;;7.35;;
51758;SDS011;66684;47.568;18.734;2023-03-14T03:25:47;15.98;;;8.48;;
51758;SDS011;66684;47.568;18.734;2023-03-14T03:28:17;15.25;;;7.95;;
51758;SDS011;66684;47.568;18.734;2023-03-14T03:30:43;13.20;;;7.60;;
51758;SDS011;66684;47.568;18.734;2023-03-14T03:33:10;15.82;;;8.13;;
51758;SDS011;66684;47.568;18.734;2023-03-14T03:35:46;13.23;;;7.37;;
51758;SDS011;66684;47.568;18.734;2023-03-14T03:38:14;12.07;;;7.37;;
51758;SDS011;66684;47.568;18.734;2023-03-14T03:40:40;12.30;;;6.80;;
51758;SDS011;66684;47.568;18.734;2023-03-14T03:43:06;13.40;;;7.68;;
51758;SDS011;66684;47.568;18.734;2023-03-14T03:45:32;12.35;;;7.22;;
51758;SDS011;66684;47.568;18.734;2023-03-14T03:47:58;11.48;;;7.50;;
51758;SDS011;66684;47.568;18.734;2023-03-14T03:50:24;12.57;;;7.37;;
51758;SDS011;66684;47.568;18.734;2023-03-14T03:52:50;20.60;;;7.85;;
51758;SDS011;66684;47.568;18.734;2023-03-14T03:55:15;12.85;;;7.32;;
51758;SDS011;66684;47.568;18.734;2023-03-14T03:57:41;17.48;;;7.53;;
51758;SDS011;66684;47.568;18.734;2023-03-14T04:00:07;11.35;;;7.15;;
51758;SDS011;66684;47.568;18.734;2023-03-14T04:02:37;14.82;;;7.90;;
51758;SDS011;66684;47.568;18.734;2023-03-14T04:05:03;12.60;;;7.18;;
51758;SDS011;66684;47.568;18.734;2023-03-14T04:07:31;15.95;;;8.30;;
51758;SDS011;66684;47.568;18.734;2023-03-14T04:09:57;13.85;;;7.50;;
51758;SDS011;66684;47.568;18.734;2023-03-14T04:12:23;12.43;;;7.18;;
51758;SDS011;66684;47.568;18.734;2023-03-14T04:14:49;12.85;;;7.12;;
51758;SDS011;66684;47.568;18.734;2023-03-14T04:17:15;12.60;;;7.28;;
51758;SDS011;66684;47.568;18.734;2023-03-14T04:19:41;13.25;;;6.97;;
51758;SDS011;66684;47.568;18.734;2023-03-14T04:22:08;12.90;;;7.37;;
51758;SDS011;66684;47.568;18.734;2023-03-14T04:24:34;13.43;;;7.20;;
51758;SDS011;66684;47.568;18.734;2023-03-14T04:27:00;15.70;;;7.65;;
51758;SDS011;66684;47.568;18.734;2023-03-14T04:29:26;15.55;;;7.70;;
51758;SDS011;66684;47.568;18.734;2023-03-14T04:31:52;16.77;;;6.90;;
51758;SDS011;66684;47.568;18.734;2023-03-14T04:34:18;17.85;;;7.43;;
51758;SDS011;66684;47.568;18.734;2023-03-14T04:36:44;16.20;;;7.72;;
51758;SDS011;66684;47.568;18.734;2023-03-14T04:39:10;12.93;;;7.07;;
51758;SDS011;66684;47.568;18.734;2023-03-14T04:41:35;10.82;;;6.62;;
51758;SDS011;66684;47.568;18.734;2023-03-14T04:44:01;11.40;;;7.12;;
51758;SDS011;66684;47.568;18.734;2023-03-14T04:46:27;10.10;;;6.53;;
51758;SDS011;66684;47.568;18.734;2023-03-14T04:48:53;10.70;;;6.55;;
51758;SDS011;66684;47.568;18.734;2023-03-14T04:51:21;12.30;;;6.75;;
51758;SDS011;66684;47.568;18.734;2023-03-14T04:53:48;13.82;;;7.25;;
51758;SDS011;66684;47.568;18.734;2023-03-14T04:56:14;13.62;;;7.70;;
51758;SDS011;66684;47.568;18.734;2023-03-14T04:58:40;12.55;;;7.35;;
51758;SDS011;66684;47.568;18.734;2023-03-14T05:01:06;13.10;;;7.30;;
51758;SDS011;66684;47.568;18.734;2023-03-14T05:03:32;14.68;;;8.13;;
51758;SDS011;66684;47.568;18.734;2023-03-14T05:05:58;11.27;;;6.85;;
51758;SDS011;66684;47.568;18.734;2023-03-14T05:08:24;15.43;;;7.75;;
51758;SDS011;66684;47.568;18.734;2023-03-14T05:10:57;16.90;;;7.93;;
51758;SDS011;66684;47.568;18.734;2023-03-14T05:13:23;16.12;;;8.52;;
51758;SDS011;66684;47.568;18.734;2023-03-14T05:15:49;13.52;;;7.60;;
51758;SDS011;66684;47.568;18.734;2023-03-14T05:18:16;11.95;;;6.95;;
51758;SDS011;66684;47.568;18.734;2023-03-14T05:20:42;12.82;;;6.65;;
51758;SDS011;66684;47.568;18.734;2023-03-14T05:23:09;14.43;;;7.60;;
51758;SDS011;66684;47.568;18.734;2023-03-14T05:25:35;17.85;;;7.30;;
51758;SDS011;66684;47.568;18.734;2023-03-14T05:28:01;15.85;;;8.27;;
51758;SDS011;66684;47.568;18.734;2023-03-14T05:30:27;14.30;;;7.87;;
51758;SDS011;66684;47.568;18.734;2023-03-14T05:32:53;12.18;;;7.07;;
51758;SDS011;66684;47.568;18.734;2023-03-14T05:35:19;12.23;;;6.60;;
51758;SDS011;66684;47.568;18.734;2023-03-14T05:37:45;12.05;;;6.43;;
51758;SDS011;66684;47.568;18.734;2023-03-14T05:40:11;13.20;;;6.72;;
51758;SDS011;66684;47.568;18.734;2023-03-14T05:42:37;12.88;;;7.10;;
51758;SDS011;66684;47.568;18.734;2023-03-14T05:45:03;11.63;;;6.70;;
51758;SDS011;66684;47.568;18.734;2023-03-14T05:47:30;9.75;;;5.62;;
51758;SDS011;66684;47.568;18.734;2023-03-14T05:49:56;13.35;;;6.22;;
51758;SDS011;66684;47.568;18.734;2023-03-14T05:52:21;12.70;;;5.82;;
51758;SDS011;66684;47.568;18.734;2023-03-14T05:54:47;13.07;;;6.60;;
51758;SDS011;66684;47.568;18.734;2023-03-14T05:57:13;12.48;;;6.60;;
51758;SDS011;66684;47.568;18.734;2023-03-14T05:59:39;14.18;;;8.75;;
51758;SDS011;66684;47.568;18.734;2023-03-14T06:02:05;12.13;;;6.70;;
51758;SDS011;66684;47.568;18.734;2023-03-14T06:04:31;13.25;;;8.32;;
51758;SDS011;66684;47.568;18.734;2023-03-14T06:06:57;13.18;;;7.62;;
51758;SDS011;66684;47.568;18.734;2023-03-14T06:09:23;22.95;;;11.32;;
51758;SDS011;66684;47.568;18.734;2023-03-14T06:11:49;11.98;;;6.62;;
51758;SDS011;66684;47.568;18.734;2023-03-14T06:14:15;14.25;;;7.37;;
51758;SDS011;66684;47.568;18.734;2023-03-14T06:16:41;10.27;;;6.18;;
51758;SDS011;66684;47.568;18.734;2023-03-14T06:19:07;10.98;;;6.00;;
51758;SDS011;66684;47.568;18.734;2023-03-14T06:21:33;9.38;;;5.70;;
51758;SDS011;66684;47.568;18.734;2023-03-14T06:23:58;11.52;;;6.25;;
51758;SDS011;66684;47.568;18.734;2023-03-14T06:26:24;9.35;;;5.70;;
51758;SDS011;66684;47.568;18.734;2023-03-14T06:28:50;12.45;;;6.20;;
51758;SDS011;66684;47.568;18.734;2023-03-14T06:31:16;13.13;;;6.37;;
51758;SDS011;66684;47.568;18.734;2023-03-14T06:33:42;11.77;;;6.55;;
51758;SDS011;66684;47.568;18.734;2023-03-14T06:36:08;10.75;;;6.10;;
51758;SDS011;66684;47.568;18.734;2023-03-14T06:38:34;11.98;;;6.47;;
51758;SDS011;66684;47.568;18.734;2023-03-14T06:41:07;14.60;;;6.82;;
51758;SDS011;66684;47.568;18.734;2023-03-14T06:45:59;16.00;;;7.97;;
51758;SDS011;66684;47.568;18.734;2023-03-14T06:48:25;16.08;;;8.13;;
51758;SDS011;66684;47.568;18.734;2023-03-14T06:50:51;13.60;;;7.15;;
51758;SDS011;66684;47.568;18.734;2023-03-14T06:53:16;12.60;;;7.37;;
51758;SDS011;66684;47.568;18.734;2023-03-14T06:55:43;14.32;;;6.82;;
51758;SDS011;66684;47.568;18.734;2023-03-14T06:58:08;15.95;;;7.22;;
51758;SDS011;66684;47.568;18.734;2023-03-14T07:00:34;12.55;;;7.18;;
51758;SDS011;66684;47.568;18.734;2023-03-14T07:03:00;17.90;;;8.90;;
51758;SDS011;66684;47.568;18.734;2023-03-14T07:05:26;16.77;;;7.47;;
51758;SDS011;66684;47.568;18.734;2023-03-14T07:07:52;16.00;;;7.93;;
51758;SDS011;66684;47.568;18.734;2023-03-14T07:10:19;16.08;;;7.03;;
51758;SDS011;66684;47.568;18.734;2023-03-14T07:12:45;12.02;;;7.00;;
51758;SDS011;66684;47.568;18.734;2023-03-14T07:15:11;14.80;;;7.50;;
51758;SDS011;66684;47.568;18.734;2023-03-14T07:17:37;12.60;;;6.53;;
51758;SDS011;66684;47.568;18.734;2023-03-14T07:20:03;13.85;;;6.97;;
51758;SDS011;66684;47.568;18.734;2023-03-14T07:22:30;13.77;;;6.75;;
51758;SDS011;66684;47.568;18.734;2023-03-14T07:24:56;13.55;;;6.70;;
51758;SDS011;66684;47.568;18.734;2023-03-14T07:27:22;10.98;;;6.62;;
51758;SDS011;66684;47.568;18.734;2023-03-14T07:29:48;13.80;;;6.78;;
51758;SDS011;66684;47.568;18.734;2023-03-14T07:32:14;11.68;;;5.60;;
51758;SDS011;66684;47.568;18.734;2023-03-14T07:34:42;11.68;;;6.37;;
51758;SDS011;66684;47.568;18.734;2023-03-14T07:37:08;10.95;;;5.68;;
51758;SDS011;66684;47.568;18.734;2023-03-14T07:39:34;10.65;;;5.72;;
51758;SDS011;66684;47.568;18.734;2023-03-14T07:42:00;10.07;;;5.43;;
51758;SDS011;66684;47.568;18.734;2023-03-14T07:44:26;11.95;;;5.35;;
51758;SDS011;66684;47.568;18.734;2023-03-14T07:46:52;10.13;;;5.57;;
51758;SDS011;66684;47.568;18.734;2023-03-14T07:49:18;11.35;;;5.80;;
51758;SDS011;66684;47.568;18.734;2023-03-14T07:51:47;15.10;;;5.60;;
51758;SDS011;66684;47.568;18.734;2023-03-14T07:54:14;10.70;;;5.30;;
51758;SDS011;66684;47.568;18.734;2023-03-14T07:56:40;18.10;;;5.40;;
51758;SDS011;66684;47.568;18.734;2023-03-14T07:59:06;9.63;;;5.10;;
51758;SDS011;66684;47.568;18.734;2023-03-14T08:01:32;15.00;;;5.55;;
51758;SDS011;66684;47.568;18.734;2023-03-14T08:03:58;9.02;;;4.93;;
51758;SDS011;66684;47.568;18.734;2023-03-14T08:06:24;11.73;;;4.68;;
51758;SDS011;66684;47.568;18.734;2023-03-14T08:08:50;11.27;;;4.60;;
51758;SDS011;66684;47.568;18.734;2023-03-14T08:11:16;11.35;;;5.03;;
51758;SDS011;66684;47.568;18.734;2023-03-14T08:13:42;9.30;;;4.90;;
51758;SDS011;66684;47.568;18.734;2023-03-14T08:16:15;7.25;;;4.25;;
51758;SDS011;66684;47.568;18.734;2023-03-14T08:18:43;9.80;;;5.12;;
51758;SDS011;66684;47.568;18.734;2023-03-14T08:21:09;7.78;;;4.65;;
51758;SDS011;66684;47.568;18.734;2023-03-14T08:23:35;9.07;;;4.75;;
51758;SDS011;66684;47.568;18.734;2023-03-14T08:26:01;9.63;;;4.55;;
51758;SDS011;66684;47.568;18.734;2023-03-14T08:28:27;11.45;;;4.60;;
51758;SDS011;66684;47.568;18.734;2023-03-14T08:30:58;10.60;;;4.53;;
51758;SDS011;66684;47.568;18.734;2023-03-14T08:33:26;7.62;;;3.87;;
51758;SDS011;66684;47.568;18.734;2023-03-14T08:35:57;15.45;;;5.35;;
51758;SDS011;66684;47.568;18.734;2023-03-14T08:38:25;10.13;;;5.22;;
51758;SDS011;66684;47.568;18.734;2023-03-14T08:40:55;7.12;;;4.50;;
51758;SDS011;66684;47.568;18.734;2023-03-14T08:43:22;8.15;;;4.32;;
51758;SDS011;66684;47.568;18.734;2023-03-14T08:45:48;8.57;;;4.45;;
51758;SDS011;66684;47.568;18.734;2023-03-14T08:48:14;10.27;;;4.45;;
51758;SDS011;66684;47.568;18.734;2023-03-14T08:50:40;6.12;;;3.45;;
51758;SDS011;66684;47.568;18.734;2023-03-14T08:53:06;8.32;;;3.72;;
51758;SDS011;66684;47.568;18.734;2023-03-14T08:55:32;8.02;;;3.70;;
51758;SDS011;66684;47.568;18.734;2023-03-14T08:57:58;5.90;;;3.35;;
51758;SDS011;66684;47.568;18.734;2023-03-14T09:00:23;7.35;;;3.50;;
51758;SDS011;66684;47.568;18.734;2023-03-14T09:02:50;5.55;;;3.03;;
51758;SDS011;66684;47.568;18.734;2023-03-14T09:05:15;7.68;;;3.58;;
51758;SDS011;66684;47.568;18.734;2023-03-14T09:07:41;6.05;;;2.75;;
51758;SDS011;66684;47.568;18.734;2023-03-14T09:10:08;5.00;;;2.00;;
51758;SDS011;66684;47.568;18.734;2023-03-14T09:12:35;3.50;;;1.30;;
51758;SDS011;66684;47.568;18.734;2023-03-14T09:15:01;5.60;;;1.17;;
51758;SDS011;66684;47.568;18.734;2023-03-14T09:17:27;3.47;;;1.23;;
51758;SDS011;66684;47.568;18.734;2023-03-14T09:19:53;8.02;;;1.02;;
51758;SDS011;66684;47.568;18.734;2023-03-14T09:22:19;2.97;;;0.90;;
51758;SDS011;66684;47.568;18.734;2023-03-14T09:24:45;2.65;;;0.30;;
51758;SDS011;66684;47.568;18.734;2023-03-14T09:27:11;3.92;;;0.50;;
51758;SDS011;66684;47.568;18.734;2023-03-14T09:29:37;3.25;;;0.73;;
51758;SDS011;66684;47.568;18.734;2023-03-14T09:32:03;6.72;;;0.68;;
51758;SDS011;66684;47.568;18.734;2023-03-14T09:34:29;4.05;;;0.90;;
51758;SDS011;66684;47.568;18.734;2023-03-14T09:36:55;1.95;;;0.40;;
51758;SDS011;66684;47.568;18.734;2023-03-14T09:39:22;5.00;;;0.73;;
51758;SDS011;66684;47.568;18.734;2023-03-14T09:41:51;1.87;;;0.30;;
51758;SDS011;66684;47.568;18.734;2023-03-14T09:44:21;4.50;;;0.65;;
51758;SDS011;66684;47.568;18.734;2023-03-14T09:47:02;3.58;;;0.47;;
51758;SDS011;66684;47.568;18.734;2023-03-14T09:49:32;5.40;;;0.50;;
51758;SDS011;66684;47.568;18.734;2023-03-14T09:52:01;9.07;;;0.50;;
51758;SDS011;66684;47.568;18.734;2023-03-14T09:54:36;2.70;;;0.63;;
51758;SDS011;66684;47.568;18.734;2023-03-14T09:57:05;3.55;;;0.40;;
51758;SDS011;66684;47.568;18.734;2023-03-14T09:59:36;4.40;;;0.47;;
51758;SDS011;66684;47.568;18.734;2023-03-14T10:02:20;5.20;;;1.65;;
51758;SDS011;66684;47.568;18.734;2023-03-14T10:04:52;5.00;;;1.00;;
51758;SDS011;66684;47.568;18.734;2023-03-14T10:07:29;3.83;;;0.60;;
51758;SDS011;66684;47.568;18.734;2023-03-14T10:09:56;9.02;;;0.60;;
51758;SDS011;66684;47.568;18.734;2023-03-14T10:12:36;2.10;;;0.65;;
51758;SDS011;66684;47.568;18.734;2023-03-14T10:15:09;3.30;;;0.40;;
51758;SDS011;66684;47.568;18.734;2023-03-14T10:17:43;4.82;;;0.50;;
51758;SDS011;66684;47.568;18.734;2023-03-14T10:21:01;7.82;;;0.57;;
51758;SDS011;66684;47.568;18.734;2023-03-14T10:25:40;2.37;;;0.40;;
51758;SDS011;66684;47.568;18.734;2023-03-14T10:30:50;4.50;;;0.80;;
51758;SDS011;66684;47.568;18.734;2023-03-14T10:33:24;2.53;;;0.50;;
51758;SDS011;66684;47.568;18.734;2023-03-14T10:36:19;7.18;;;1.08;;
51758;SDS011;66684;47.568;18.734;2023-03-14T10:38:48;5.12;;;0.60;;
51758;SDS011;66684;47.568;18.734;2023-03-14T10:41:19;1.33;;;0.50;;
51758;SDS011;66684;47.568;18.734;2023-03-14T10:43:51;9.98;;;0.60;;
51758;SDS011;66684;47.568;18.734;2023-03-14T10:46:19;2.95;;;0.70;;
51758;SDS011;66684;47.568;18.734;2023-03-14T10:48:46;3.25;;;0.73;;
51758;SDS011;66684;47.568;18.734;2023-03-14T10:53:43;4.55;;;0.60;;
51758;SDS011;66684;47.568;18.734;2023-03-14T10:56:16;5.43;;;0.65;;
51758;SDS011;66684;47.568;18.734;2023-03-14T10:58:51;1.80;;;0.40;;
51758;SDS011;66684;47.568;18.734;2023-03-14T11:12:19;3.65;;;0.40;;
51758;SDS011;66684;47.568;18.734;2023-03-14T11:18:15;1.62;;;0.40;;
51758;SDS011;66684;47.568;18.734;2023-03-14T11:20:59;2.95;;;0.30;;
51758;SDS011;66684;47.568;18.734;2023-03-14T11:23:41;5.32;;;1.00;;
51758;SDS011;66684;47.568;18.734;2023-03-14T11:26:17;3.95;;;1.48;;
51758;SDS011;66684;47.568;18.734;2023-03-14T11:28:55;10.15;;;2.50;;
51758;SDS011;66684;47.568;18.734;2023-03-14T11:31:26;1.33;;;0.40;;
51758;SDS011;66684;47.568;18.734;2023-03-14T11:36:46;1.98;;;0.52;;
51758;SDS011;66684;47.568;18.734;2023-03-14T11:39:19;2.55;;;0.40;;
51758;SDS011;66684;47.568;18.734;2023-03-14T11:41:50;2.95;;;0.45;;
51758;SDS011;66684;47.568;18.734;2023-03-14T11:44:26;4.22;;;0.40;;
51758;SDS011;66684;47.568;18.734;2023-03-14T11:47:03;1.30;;;0.28;;
51758;SDS011;66684;47.568;18.734;2023-03-14T11:49:40;2.20;;;0.40;;
51758;SDS011;66684;47.568;18.734;2023-03-14T11:52:23;3.35;;;0.50;;
51758;SDS011;66684;47.568;18.734;2023-03-14T11:55:13;11.57;;;1.02;;
51758;SDS011;66684;47.568;18.734;2023-03-14T11:57:42;2.92;;;0.30;;
51758;SDS011;66684;47.568;18.734;2023-03-14T12:00:18;5.25;;;0.50;;
51758;SDS011;66684;47.568;18.734;2023-03-14T12:05:31;2.95;;;0.50;;
51758;SDS011;66684;47.568;18.734;2023-03-14T12:13:04;4.28;;;0.30;;
51758;SDS011;66684;47.568;18.734;2023-03-14T12:15:32;2.12;;;0.40;;
51758;SDS011;66684;47.568;18.734;2023-03-14T12:18:04;1.23;;;0.30;;
51758;SDS011;66684;47.568;18.734;2023-03-14T12:24:14;2.62;;;0.50;;
51758;SDS011;66684;47.568;18.734;2023-03-14T12:26:43;5.57;;;0.73;;
51758;SDS011;66684;47.568;18.734;2023-03-14T12:29:17;4.10;;;0.60;;
51758;SDS011;66684;47.568;18.734;2023-03-14T12:31:44;2.65;;;0.62;;
51758;SDS011;66684;47.568;18.734;2023-03-14T12:42:12;2.40;;;0.62;;
51758;SDS011;66684;47.568;18.734;2023-03-14T12:44:48;6.75;;;0.60;;
51758;SDS011;66684;47.568;18.734;2023-03-14T12:49:44;5.22;;;0.50;;
51758;SDS011;66684;47.568;18.734;2023-03-14T12:52:22;4.10;;;0.57;;
51758;SDS011;66684;47.568;18.734;2023-03-14T12:55:06;1.73;;;0.55;;
51758;SDS011;66684;47.568;18.734;2023-03-14T12:57:45;5.78;;;0.88;;
51758;SDS011;66684;47.568;18.734;2023-03-14T13:00:32;4.12;;;0.80;;
51758;SDS011;66684;47.568;18.734;2023-03-14T13:03:12;3.30;;;0.40;;
51758;SDS011;66684;47.568;18.734;2023-03-14T13:05:55;4.50;;;0.80;;
51758;SDS011;66684;47.568;18.734;2023-03-14T13:08:37;4.55;;;0.68;;
51758;SDS011;66684;47.568;18.734;2023-03-14T13:11:06;5.22;;;1.10;;
51758;SDS011;66684;47.568;18.734;2023-03-14T13:13:36;3.47;;;0.98;;
51758;SDS011;66684;47.568;18.734;2023-03-14T13:16:09;3.67;;;0.88;;
51758;SDS011;66684;47.568;18.734;2023-03-14T13:18:47;5.45;;;1.02;;
51758;SDS011;66684;47.568;18.734;2023-03-14T13:21:24;5.72;;;1.17;;
51758;SDS011;66684;47.568;18.734;2023-03-14T13:23:59;3.97;;;1.08;;
51758;SDS011;66684;47.568;18.734;2023-03-14T13:26:39;4.10;;;1.10;;
51758;SDS011;66684;47.568;18.734;2023-03-14T13:29:24;3.80;;;1.12;;
51758;SDS011;66684;47.568;18.734;2023-03-14T13:31:53;2.72;;;0.93;;
51758;SDS011;66684;47.568;18.734;2023-03-14T13:34:33;3.75;;;1.10;;
51758;SDS011;66684;47.568;18.734;2023-03-14T13:37:00;3.08;;;1.17;;
51758;SDS011;66684;47.568;18.734;2023-03-14T13:39:27;3.65;;;1.10;;
51758;SDS011;66684;47.568;18.734;2023-03-14T13:41:57;6.78;;;1.98;;
51758;SDS011;66684;47.568;18.734;2023-03-14T13:44:26;6.30;;;1.50;;
51758;SDS011;66684;47.568;18.734;2023-03-14T13:46:58;7.97;;;1.35;;
51758;SDS011;66684;47.568;18.734;2023-03-14T13:49:27;3.35;;;1.40;;
51758;SDS011;66684;47.568;18.734;2023-03-14T13:51:56;13.65;;;1.60;;
51758;SDS011;66684;47.568;18.734;2023-03-14T13:54:22;4.57;;;2.10;;
51758;SDS011;66684;47.568;18.734;2023-03-14T13:57:00;5.87;;;1.70;;
51758;SDS011;66684;47.568;18.734;2023-03-14T13:59:29;3.87;;;1.08;;
51758;SDS011;66684;47.568;18.734;2023-03-14T14:04:41;6.45;;;1.15;;
51758;SDS011;66684;47.568;18.734;2023-03-14T14:07:08;8.23;;;1.35;;
51758;SDS011;66684;47.568;18.734;2023-03-14T14:09:39;5.12;;;2.08;;
51758;SDS011;66684;47.568;18.734;2023-03-14T14:12:16;3.35;;;0.98;;
51758;SDS011;66684;47.568;18.734;2023-03-14T14:15:03;7.62;;;0.90;;
51758;SDS011;66684;47.568;18.734;2023-03-14T14:17:41;3.40;;;1.10;;
51758;SDS011;66684;47.568;18.734;2023-03-14T14:20:17;7.57;;;3.92;;
51758;SDS011;66684;47.568;18.734;2023-03-14T14:22:52;52.65;;;24.70;;
51758;SDS011;66684;47.568;18.734;2023-03-14T14:25:18;50.15;;;28.17;;
51758;SDS011;66684;47.568;18.734;2023-03-14T14:27:46;25.73;;;14.35;;
51758;SDS011;66684;47.568;18.734;2023-03-14T14:32:43;8.70;;;3.30;;
51758;SDS011;66684;47.568;18.734;2023-03-14T14:35:21;10.32;;;2.33;;
51758;SDS011;66684;47.568;18.734;2023-03-14T14:37:57;4.05;;;2.17;;
51758;SDS011;66684;47.568;18.734;2023-03-14T14:40:28;5.60;;;3.25;;
51758;SDS011;66684;47.568;18.734;2023-03-14T14:42:55;4.60;;;2.22;;
51758;SDS011;66684;47.568;18.734;2023-03-14T14:45:28;4.25;;;1.23;;
51758;SDS011;66684;47.568;18.734;2023-03-14T14:47:55;3.58;;;1.08;;
51758;SDS011;66684;47.568;18.734;2023-03-14T14:50:39;5.03;;;1.35;;
51758;SDS011;66684;47.568;18.734;2023-03-14T14:53:31;3.20;;;1.20;;
51758;SDS011;66684;47.568;18.734;2023-03-14T14:58:41;6.53;;;1.37;;
51758;SDS011;66684;47.568;18.734;2023-03-14T15:03:44;4.80;;;1.62;;
51758;SDS011;66684;47.568;18.734;2023-03-14T15:06:15;7.57;;;1.73;;
51758;SDS011;66684;47.568;18.734;2023-03-14T15:08:42;4.82;;;1.58;;
51758;SDS011;66684;47.568;18.734;2023-03-14T15:11:14;3.58;;;0.90;;
51758;SDS011;66684;47.568;18.734;2023-03-14T15:13:42;3.65;;;0.43;;
51758;SDS011;66684;47.568;18.734;2023-03-14T15:16:10;4.37;;;1.10;;
51758;SDS011;66684;47.568;18.734;2023-03-14T15:18:37;5.37;;;1.00;;
51758;SDS011;66684;47.568;18.734;2023-03-14T15:21:03;5.60;;;1.25;;
51758;SDS011;66684;47.568;18.734;2023-03-14T15:23:29;5.25;;;0.93;;
51758;SDS011;66684;47.568;18.734;2023-03-14T15:25:55;2.65;;;0.60;;
51758;SDS011;66684;47.568;18.734;2023-03-14T15:28:25;5.00;;;1.17;;
51758;SDS011;66684;47.568;18.734;2023-03-14T15:30:53;5.87;;;0.95;;
51758;SDS011;66684;47.568;18.734;2023-03-14T15:33:21;4.22;;;0.70;;
51758;SDS011;66684;47.568;18.734;2023-03-14T15:35:47;7.53;;;0.70;;
51758;SDS011;66684;47.568;18.734;2023-03-14T15:38:14;4.90;;;0.70;;
51758;SDS011;66684;47.568;18.734;2023-03-14T15:40:42;5.03;;;1.15;;
51758;SDS011;66684;47.568;18.734;2023-03-14T15:43:08;6.07;;;0.77;;
51758;SDS011;66684;47.568;18.734;2023-03-14T15:45:34;4.87;;;0.70;;